<?xml version="1.0" encoding="UTF-8" standalone="no" ?>
<gpx xmlns="http://www.topografix.com/GPX/1/1" xmlns:xsi="http://www.w3.org/2001/XMLSchema-instance" xsi:schemaLocation="http://www.topografix.com/GPX/1/1 http://www.topografix.com/GPX/1/1/gpx.xsd" version="1.1" creator="VisuGPX - https://www.visugpx.com">
  <metadata>
    <name>Sortie vélo CE2/CM1 Mornant</name>
    <desc><![CDATA[Sortie vélo école de Morant]]></desc>
  </metadata>
  <wpt lat="42.73746" lon="-0.01152">
    <ele>1350.29</ele>
    <name><![CDATA[MAP]]></name>
  </wpt>
  <trk>
    <name><![CDATA[ACTIVE LOG: 10 JUN 2016 09:07]]></name>
    <trkseg>
      <trkpt lat="45.62251" lon="4.67165">
        <ele>392.84</ele>
        <time>2016-06-10T07:07:03Z</time>
      </trkpt>
      <trkpt lat="45.6225" lon="4.67164">
        <ele>391.39</ele>
        <time>2016-06-10T07:07:16Z</time>
      </trkpt>
      <trkpt lat="45.62242" lon="4.67157">
        <ele>387.07</ele>
        <time>2016-06-10T07:07:28Z</time>
      </trkpt>
      <trkpt lat="45.62242" lon="4.67157">
        <ele>386.59</ele>
        <time>2016-06-10T07:07:48Z</time>
      </trkpt>
      <trkpt lat="45.62236" lon="4.67165">
        <ele>381.78</ele>
        <time>2016-06-10T07:08:02Z</time>
      </trkpt>
      <trkpt lat="45.62232" lon="4.67172">
        <ele>381.78</ele>
        <time>2016-06-10T07:08:05Z</time>
      </trkpt>
      <trkpt lat="45.62214" lon="4.67182">
        <ele>381.78</ele>
        <time>2016-06-10T07:08:13Z</time>
      </trkpt>
      <trkpt lat="45.62191" lon="4.67213">
        <ele>382.26</ele>
        <time>2016-06-10T07:08:27Z</time>
      </trkpt>
      <trkpt lat="45.62159" lon="4.67283">
        <ele>380.82</ele>
        <time>2016-06-10T07:08:45Z</time>
      </trkpt>
      <trkpt lat="45.62137" lon="4.67355">
        <ele>379.38</ele>
        <time>2016-06-10T07:09:03Z</time>
      </trkpt>
      <trkpt lat="45.62118" lon="4.67415">
        <ele>378.42</ele>
        <time>2016-06-10T07:09:19Z</time>
      </trkpt>
      <trkpt lat="45.62088" lon="4.67458">
        <ele>377.94</ele>
        <time>2016-06-10T07:09:35Z</time>
      </trkpt>
      <trkpt lat="45.62056" lon="4.67457">
        <ele>375.53</ele>
        <time>2016-06-10T07:09:47Z</time>
      </trkpt>
      <trkpt lat="45.62047" lon="4.67493">
        <ele>375.53</ele>
        <time>2016-06-10T07:09:58Z</time>
      </trkpt>
      <trkpt lat="45.62051" lon="4.67538">
        <ele>375.05</ele>
        <time>2016-06-10T07:10:09Z</time>
      </trkpt>
      <trkpt lat="45.62089" lon="4.67556">
        <ele>374.57</ele>
        <time>2016-06-10T07:10:21Z</time>
      </trkpt>
      <trkpt lat="45.62148" lon="4.6758">
        <ele>372.65</ele>
        <time>2016-06-10T07:10:36Z</time>
      </trkpt>
      <trkpt lat="45.62177" lon="4.67591">
        <ele>371.21</ele>
        <time>2016-06-10T07:10:47Z</time>
      </trkpt>
      <trkpt lat="45.62209" lon="4.67622">
        <ele>369.76</ele>
        <time>2016-06-10T07:10:56Z</time>
      </trkpt>
      <trkpt lat="45.62229" lon="4.67638">
        <ele>368.32</ele>
        <time>2016-06-10T07:11:01Z</time>
      </trkpt>
      <trkpt lat="45.62293" lon="4.67661">
        <ele>366.88</ele>
        <time>2016-06-10T07:11:14Z</time>
      </trkpt>
      <trkpt lat="45.62307" lon="4.67668">
        <ele>366.4</ele>
        <time>2016-06-10T07:11:17Z</time>
      </trkpt>
      <trkpt lat="45.62349" lon="4.6773">
        <ele>365.92</ele>
        <time>2016-06-10T07:11:30Z</time>
      </trkpt>
      <trkpt lat="45.62412" lon="4.67755">
        <ele>364.48</ele>
        <time>2016-06-10T07:11:46Z</time>
      </trkpt>
      <trkpt lat="45.62482" lon="4.67832">
        <ele>362.55</ele>
        <time>2016-06-10T07:12:06Z</time>
      </trkpt>
      <trkpt lat="45.62558" lon="4.67908">
        <ele>362.07</ele>
        <time>2016-06-10T07:12:30Z</time>
      </trkpt>
      <trkpt lat="45.62623" lon="4.67976">
        <ele>359.67</ele>
        <time>2016-06-10T07:12:49Z</time>
      </trkpt>
      <trkpt lat="45.62676" lon="4.68026">
        <ele>356.31</ele>
        <time>2016-06-10T07:13:07Z</time>
      </trkpt>
      <trkpt lat="45.62675" lon="4.6803">
        <ele>355.83</ele>
        <time>2016-06-10T07:13:21Z</time>
      </trkpt>
      <trkpt lat="45.62675" lon="4.6803">
        <ele>356.31</ele>
        <time>2016-06-10T07:17:32Z</time>
      </trkpt>
      <trkpt lat="45.62666" lon="4.68021">
        <ele>353.42</ele>
        <time>2016-06-10T07:17:48Z</time>
      </trkpt>
      <trkpt lat="45.62664" lon="4.6802">
        <ele>353.42</ele>
        <time>2016-06-10T07:18:02Z</time>
      </trkpt>
      <trkpt lat="45.62665" lon="4.68019">
        <ele>353.9</ele>
        <time>2016-06-10T07:20:59Z</time>
      </trkpt>
      <trkpt lat="45.62675" lon="4.68022">
        <ele>353.42</ele>
        <time>2016-06-10T07:21:15Z</time>
      </trkpt>
      <trkpt lat="45.62681" lon="4.68029">
        <ele>353.42</ele>
        <time>2016-06-10T07:22:28Z</time>
      </trkpt>
      <trkpt lat="45.62689" lon="4.68035">
        <ele>352.94</ele>
        <time>2016-06-10T07:22:42Z</time>
      </trkpt>
      <trkpt lat="45.6269" lon="4.68037">
        <ele>352.94</ele>
        <time>2016-06-10T07:22:44Z</time>
      </trkpt>
      <trkpt lat="45.62704" lon="4.68051">
        <ele>352.94</ele>
        <time>2016-06-10T07:23:01Z</time>
      </trkpt>
      <trkpt lat="45.62721" lon="4.68064">
        <ele>351.02</ele>
        <time>2016-06-10T07:23:13Z</time>
      </trkpt>
      <trkpt lat="45.62734" lon="4.68079">
        <ele>350.06</ele>
        <time>2016-06-10T07:23:29Z</time>
      </trkpt>
      <trkpt lat="45.62759" lon="4.68104">
        <ele>345.73</ele>
        <time>2016-06-10T07:23:45Z</time>
      </trkpt>
      <trkpt lat="45.62767" lon="4.68111">
        <ele>345.73</ele>
        <time>2016-06-10T07:24:02Z</time>
      </trkpt>
      <trkpt lat="45.62777" lon="4.6812">
        <ele>346.21</ele>
        <time>2016-06-10T07:24:17Z</time>
      </trkpt>
      <trkpt lat="45.62794" lon="4.68148">
        <ele>346.21</ele>
        <time>2016-06-10T07:24:30Z</time>
      </trkpt>
      <trkpt lat="45.62793" lon="4.68148">
        <ele>346.21</ele>
        <time>2016-06-10T07:25:04Z</time>
      </trkpt>
      <trkpt lat="45.62801" lon="4.68163">
        <ele>348.13</ele>
        <time>2016-06-10T07:25:20Z</time>
      </trkpt>
      <trkpt lat="45.62828" lon="4.68179">
        <ele>347.17</ele>
        <time>2016-06-10T07:25:38Z</time>
      </trkpt>
      <trkpt lat="45.62855" lon="4.68193">
        <ele>346.21</ele>
        <time>2016-06-10T07:25:54Z</time>
      </trkpt>
      <trkpt lat="45.62862" lon="4.68198">
        <ele>346.69</ele>
        <time>2016-06-10T07:26:00Z</time>
      </trkpt>
      <trkpt lat="45.6288" lon="4.68213">
        <ele>348.13</ele>
        <time>2016-06-10T07:26:14Z</time>
      </trkpt>
      <trkpt lat="45.62901" lon="4.68234">
        <ele>347.65</ele>
        <time>2016-06-10T07:26:32Z</time>
      </trkpt>
      <trkpt lat="45.62918" lon="4.68252">
        <ele>349.58</ele>
        <time>2016-06-10T07:26:47Z</time>
      </trkpt>
      <trkpt lat="45.6294" lon="4.68277">
        <ele>352.94</ele>
        <time>2016-06-10T07:27:03Z</time>
      </trkpt>
      <trkpt lat="45.62978" lon="4.68328">
        <ele>356.31</ele>
        <time>2016-06-10T07:27:25Z</time>
      </trkpt>
      <trkpt lat="45.63006" lon="4.68362">
        <ele>358.23</ele>
        <time>2016-06-10T07:27:44Z</time>
      </trkpt>
      <trkpt lat="45.63039" lon="4.68398">
        <ele>358.71</ele>
        <time>2016-06-10T07:28:03Z</time>
      </trkpt>
      <trkpt lat="45.63081" lon="4.68433">
        <ele>360.15</ele>
        <time>2016-06-10T07:28:23Z</time>
      </trkpt>
      <trkpt lat="45.63134" lon="4.68484">
        <ele>358.71</ele>
        <time>2016-06-10T07:28:45Z</time>
      </trkpt>
      <trkpt lat="45.63189" lon="4.68538">
        <ele>357.27</ele>
        <time>2016-06-10T07:29:06Z</time>
      </trkpt>
      <trkpt lat="45.63246" lon="4.68587">
        <ele>356.31</ele>
        <time>2016-06-10T07:29:25Z</time>
      </trkpt>
      <trkpt lat="45.63264" lon="4.686">
        <ele>355.83</ele>
        <time>2016-06-10T07:29:39Z</time>
      </trkpt>
      <trkpt lat="45.63263" lon="4.68599">
        <ele>355.83</ele>
        <time>2016-06-10T07:29:46Z</time>
      </trkpt>
      <trkpt lat="45.63266" lon="4.68598">
        <ele>356.79</ele>
        <time>2016-06-10T07:29:50Z</time>
      </trkpt>
      <trkpt lat="45.63271" lon="4.68595">
        <ele>359.19</ele>
        <time>2016-06-10T07:29:55Z</time>
      </trkpt>
      <trkpt lat="45.63278" lon="4.68596">
        <ele>360.15</ele>
        <time>2016-06-10T07:30:01Z</time>
      </trkpt>
      <trkpt lat="45.63311" lon="4.68605">
        <ele>362.07</ele>
        <time>2016-06-10T07:30:18Z</time>
      </trkpt>
      <trkpt lat="45.63362" lon="4.68608">
        <ele>364.48</ele>
        <time>2016-06-10T07:30:42Z</time>
      </trkpt>
      <trkpt lat="45.63397" lon="4.6861">
        <ele>367.36</ele>
        <time>2016-06-10T07:30:58Z</time>
      </trkpt>
      <trkpt lat="45.63435" lon="4.68608">
        <ele>372.17</ele>
        <time>2016-06-10T07:31:15Z</time>
      </trkpt>
      <trkpt lat="45.63461" lon="4.68604">
        <ele>374.57</ele>
        <time>2016-06-10T07:31:30Z</time>
      </trkpt>
      <trkpt lat="45.63484" lon="4.68599">
        <ele>376.49</ele>
        <time>2016-06-10T07:31:43Z</time>
      </trkpt>
      <trkpt lat="45.63491" lon="4.68599">
        <ele>376.97</ele>
        <time>2016-06-10T07:31:57Z</time>
      </trkpt>
      <trkpt lat="45.63506" lon="4.68602">
        <ele>377.45</ele>
        <time>2016-06-10T07:32:08Z</time>
      </trkpt>
      <trkpt lat="45.63541" lon="4.68596">
        <ele>378.9</ele>
        <time>2016-06-10T07:32:24Z</time>
      </trkpt>
      <trkpt lat="45.63573" lon="4.68581">
        <ele>381.78</ele>
        <time>2016-06-10T07:32:37Z</time>
      </trkpt>
      <trkpt lat="45.63595" lon="4.68584">
        <ele>383.7</ele>
        <time>2016-06-10T07:32:50Z</time>
      </trkpt>
      <trkpt lat="45.63599" lon="4.68584">
        <ele>383.7</ele>
        <time>2016-06-10T07:32:53Z</time>
      </trkpt>
      <trkpt lat="45.63609" lon="4.68584">
        <ele>384.18</ele>
        <time>2016-06-10T07:32:59Z</time>
      </trkpt>
      <trkpt lat="45.63645" lon="4.68581">
        <ele>385.63</ele>
        <time>2016-06-10T07:33:18Z</time>
      </trkpt>
      <trkpt lat="45.63691" lon="4.68573">
        <ele>387.55</ele>
        <time>2016-06-10T07:33:37Z</time>
      </trkpt>
      <trkpt lat="45.63738" lon="4.68562">
        <ele>388.03</ele>
        <time>2016-06-10T07:33:57Z</time>
      </trkpt>
      <trkpt lat="45.63758" lon="4.68557">
        <ele>388.51</ele>
        <time>2016-06-10T07:34:08Z</time>
      </trkpt>
      <trkpt lat="45.63771" lon="4.68556">
        <ele>388.51</ele>
        <time>2016-06-10T07:34:23Z</time>
      </trkpt>
      <trkpt lat="45.63774" lon="4.68556">
        <ele>390.43</ele>
        <time>2016-06-10T07:35:28Z</time>
      </trkpt>
      <trkpt lat="45.63779" lon="4.68555">
        <ele>390.91</ele>
        <time>2016-06-10T07:35:42Z</time>
      </trkpt>
      <trkpt lat="45.63797" lon="4.68549">
        <ele>390.43</ele>
        <time>2016-06-10T07:36:54Z</time>
      </trkpt>
      <trkpt lat="45.6383" lon="4.68545">
        <ele>388.51</ele>
        <time>2016-06-10T07:37:06Z</time>
      </trkpt>
      <trkpt lat="45.63878" lon="4.6854">
        <ele>387.07</ele>
        <time>2016-06-10T07:37:21Z</time>
      </trkpt>
      <trkpt lat="45.63917" lon="4.68539">
        <ele>388.51</ele>
        <time>2016-06-10T07:37:34Z</time>
      </trkpt>
      <trkpt lat="45.63958" lon="4.68538">
        <ele>389.95</ele>
        <time>2016-06-10T07:37:48Z</time>
      </trkpt>
      <trkpt lat="45.64008" lon="4.68536">
        <ele>389.47</ele>
        <time>2016-06-10T07:38:03Z</time>
      </trkpt>
      <trkpt lat="45.64061" lon="4.68555">
        <ele>388.99</ele>
        <time>2016-06-10T07:38:18Z</time>
      </trkpt>
      <trkpt lat="45.6409" lon="4.68568">
        <ele>390.43</ele>
        <time>2016-06-10T07:38:29Z</time>
      </trkpt>
      <trkpt lat="45.64095" lon="4.6858">
        <ele>389.47</ele>
        <time>2016-06-10T07:38:34Z</time>
      </trkpt>
      <trkpt lat="45.64102" lon="4.68629">
        <ele>392.36</ele>
        <time>2016-06-10T07:38:48Z</time>
      </trkpt>
      <trkpt lat="45.64105" lon="4.68647">
        <ele>393.32</ele>
        <time>2016-06-10T07:38:56Z</time>
      </trkpt>
      <trkpt lat="45.64107" lon="4.6866">
        <ele>393.8</ele>
        <time>2016-06-10T07:39:01Z</time>
      </trkpt>
      <trkpt lat="45.64117" lon="4.68711">
        <ele>395.24</ele>
        <time>2016-06-10T07:39:17Z</time>
      </trkpt>
      <trkpt lat="45.64132" lon="4.68792">
        <ele>389.47</ele>
        <time>2016-06-10T07:39:35Z</time>
      </trkpt>
      <trkpt lat="45.64151" lon="4.68891">
        <ele>388.99</ele>
        <time>2016-06-10T07:39:54Z</time>
      </trkpt>
      <trkpt lat="45.64175" lon="4.68958">
        <ele>392.84</ele>
        <time>2016-06-10T07:40:10Z</time>
      </trkpt>
      <trkpt lat="45.64209" lon="4.69019">
        <ele>395.24</ele>
        <time>2016-06-10T07:40:29Z</time>
      </trkpt>
      <trkpt lat="45.64233" lon="4.69051">
        <ele>396.2</ele>
        <time>2016-06-10T07:40:44Z</time>
      </trkpt>
      <trkpt lat="45.64238" lon="4.69058">
        <ele>395.72</ele>
        <time>2016-06-10T07:41:02Z</time>
      </trkpt>
      <trkpt lat="45.64244" lon="4.6907">
        <ele>397.16</ele>
        <time>2016-06-10T07:41:15Z</time>
      </trkpt>
      <trkpt lat="45.64248" lon="4.69077">
        <ele>398.6</ele>
        <time>2016-06-10T07:41:33Z</time>
      </trkpt>
      <trkpt lat="45.64244" lon="4.69077">
        <ele>400.05</ele>
        <time>2016-06-10T08:01:46Z</time>
      </trkpt>
      <trkpt lat="45.64241" lon="4.69082">
        <ele>402.45</ele>
        <time>2016-06-10T08:02:10Z</time>
      </trkpt>
      <trkpt lat="45.64245" lon="4.69085">
        <ele>399.08</ele>
        <time>2016-06-10T08:02:25Z</time>
      </trkpt>
      <trkpt lat="45.64244" lon="4.69086">
        <ele>399.08</ele>
        <time>2016-06-10T08:02:27Z</time>
      </trkpt>
      <trkpt lat="45.64244" lon="4.69102">
        <ele>397.64</ele>
        <time>2016-06-10T08:02:45Z</time>
      </trkpt>
      <trkpt lat="45.64245" lon="4.69107">
        <ele>396.68</ele>
        <time>2016-06-10T08:02:53Z</time>
      </trkpt>
      <trkpt lat="45.64247" lon="4.69089">
        <ele>394.76</ele>
        <time>2016-06-10T08:03:07Z</time>
      </trkpt>
      <trkpt lat="45.6425" lon="4.69074">
        <ele>394.28</ele>
        <time>2016-06-10T08:03:21Z</time>
      </trkpt>
      <trkpt lat="45.64254" lon="4.69068">
        <ele>394.28</ele>
        <time>2016-06-10T08:03:32Z</time>
      </trkpt>
      <trkpt lat="45.64264" lon="4.69064">
        <ele>395.24</ele>
        <time>2016-06-10T08:03:36Z</time>
      </trkpt>
      <trkpt lat="45.64297" lon="4.69087">
        <ele>394.76</ele>
        <time>2016-06-10T08:03:49Z</time>
      </trkpt>
      <trkpt lat="45.64323" lon="4.69104">
        <ele>395.72</ele>
        <time>2016-06-10T08:04:05Z</time>
      </trkpt>
      <trkpt lat="45.64355" lon="4.69126">
        <ele>396.68</ele>
        <time>2016-06-10T08:04:22Z</time>
      </trkpt>
      <trkpt lat="45.64394" lon="4.69148">
        <ele>396.68</ele>
        <time>2016-06-10T08:04:40Z</time>
      </trkpt>
      <trkpt lat="45.6443" lon="4.69168">
        <ele>399.57</ele>
        <time>2016-06-10T08:04:57Z</time>
      </trkpt>
      <trkpt lat="45.6446" lon="4.69181">
        <ele>402.45</ele>
        <time>2016-06-10T08:05:14Z</time>
      </trkpt>
      <trkpt lat="45.64489" lon="4.69192">
        <ele>404.37</ele>
        <time>2016-06-10T08:05:33Z</time>
      </trkpt>
      <trkpt lat="45.64513" lon="4.6923">
        <ele>406.77</ele>
        <time>2016-06-10T08:05:49Z</time>
      </trkpt>
      <trkpt lat="45.64508" lon="4.6929">
        <ele>408.7</ele>
        <time>2016-06-10T08:06:09Z</time>
      </trkpt>
      <trkpt lat="45.64501" lon="4.69354">
        <ele>406.77</ele>
        <time>2016-06-10T08:06:26Z</time>
      </trkpt>
      <trkpt lat="45.64496" lon="4.6943">
        <ele>404.37</ele>
        <time>2016-06-10T08:06:43Z</time>
      </trkpt>
      <trkpt lat="45.64502" lon="4.69513">
        <ele>403.89</ele>
        <time>2016-06-10T08:06:57Z</time>
      </trkpt>
      <trkpt lat="45.64508" lon="4.69572">
        <ele>402.45</ele>
        <time>2016-06-10T08:07:12Z</time>
      </trkpt>
      <trkpt lat="45.64534" lon="4.69607">
        <ele>400.05</ele>
        <time>2016-06-10T08:07:28Z</time>
      </trkpt>
      <trkpt lat="45.64546" lon="4.69623">
        <ele>399.08</ele>
        <time>2016-06-10T08:07:35Z</time>
      </trkpt>
      <trkpt lat="45.64574" lon="4.69661">
        <ele>395.72</ele>
        <time>2016-06-10T08:07:53Z</time>
      </trkpt>
      <trkpt lat="45.64607" lon="4.69708">
        <ele>390.91</ele>
        <time>2016-06-10T08:08:08Z</time>
      </trkpt>
      <trkpt lat="45.64646" lon="4.6976">
        <ele>386.11</ele>
        <time>2016-06-10T08:08:27Z</time>
      </trkpt>
      <trkpt lat="45.64682" lon="4.6981">
        <ele>380.82</ele>
        <time>2016-06-10T08:08:45Z</time>
      </trkpt>
      <trkpt lat="45.64717" lon="4.69856">
        <ele>376.97</ele>
        <time>2016-06-10T08:09:01Z</time>
      </trkpt>
      <trkpt lat="45.64743" lon="4.69917">
        <ele>372.17</ele>
        <time>2016-06-10T08:09:19Z</time>
      </trkpt>
      <trkpt lat="45.64754" lon="4.69985">
        <ele>372.65</ele>
        <time>2016-06-10T08:09:34Z</time>
      </trkpt>
      <trkpt lat="45.64763" lon="4.70054">
        <ele>370.73</ele>
        <time>2016-06-10T08:09:50Z</time>
      </trkpt>
      <trkpt lat="45.64782" lon="4.70083">
        <ele>364.96</ele>
        <time>2016-06-10T08:10:02Z</time>
      </trkpt>
      <trkpt lat="45.64821" lon="4.70105">
        <ele>358.23</ele>
        <time>2016-06-10T08:10:15Z</time>
      </trkpt>
      <trkpt lat="45.64853" lon="4.70123">
        <ele>352.46</ele>
        <time>2016-06-10T08:10:27Z</time>
      </trkpt>
      <trkpt lat="45.64892" lon="4.70142">
        <ele>348.62</ele>
        <time>2016-06-10T08:10:40Z</time>
      </trkpt>
      <trkpt lat="45.64915" lon="4.70155">
        <ele>347.17</ele>
        <time>2016-06-10T08:10:52Z</time>
      </trkpt>
      <trkpt lat="45.64957" lon="4.70172">
        <ele>343.33</ele>
        <time>2016-06-10T08:11:06Z</time>
      </trkpt>
      <trkpt lat="45.65001" lon="4.70182">
        <ele>340.92</ele>
        <time>2016-06-10T08:11:19Z</time>
      </trkpt>
      <trkpt lat="45.65057" lon="4.70196">
        <ele>342.37</ele>
        <time>2016-06-10T08:11:36Z</time>
      </trkpt>
      <trkpt lat="45.65104" lon="4.70217">
        <ele>342.37</ele>
        <time>2016-06-10T08:11:51Z</time>
      </trkpt>
      <trkpt lat="45.65143" lon="4.70257">
        <ele>340.44</ele>
        <time>2016-06-10T08:12:07Z</time>
      </trkpt>
      <trkpt lat="45.65191" lon="4.70314">
        <ele>339.96</ele>
        <time>2016-06-10T08:12:25Z</time>
      </trkpt>
      <trkpt lat="45.65226" lon="4.70356">
        <ele>339.48</ele>
        <time>2016-06-10T08:12:42Z</time>
      </trkpt>
      <trkpt lat="45.65266" lon="4.70404">
        <ele>339.48</ele>
        <time>2016-06-10T08:12:57Z</time>
      </trkpt>
      <trkpt lat="45.65295" lon="4.70442">
        <ele>337.56</ele>
        <time>2016-06-10T08:13:10Z</time>
      </trkpt>
      <trkpt lat="45.65331" lon="4.70489">
        <ele>334.2</ele>
        <time>2016-06-10T08:13:25Z</time>
      </trkpt>
      <trkpt lat="45.65335" lon="4.70521">
        <ele>332.27</ele>
        <time>2016-06-10T08:13:35Z</time>
      </trkpt>
      <trkpt lat="45.65375" lon="4.70572">
        <ele>329.87</ele>
        <time>2016-06-10T08:13:52Z</time>
      </trkpt>
      <trkpt lat="45.6538" lon="4.70577">
        <ele>330.83</ele>
        <time>2016-06-10T08:14:38Z</time>
      </trkpt>
      <trkpt lat="45.65385" lon="4.70583">
        <ele>330.35</ele>
        <time>2016-06-10T08:14:52Z</time>
      </trkpt>
      <trkpt lat="45.65391" lon="4.70576">
        <ele>331.31</ele>
        <time>2016-06-10T08:14:58Z</time>
      </trkpt>
      <trkpt lat="45.65411" lon="4.70586">
        <ele>330.83</ele>
        <time>2016-06-10T08:15:10Z</time>
      </trkpt>
      <trkpt lat="45.65437" lon="4.70645">
        <ele>331.31</ele>
        <time>2016-06-10T08:15:23Z</time>
      </trkpt>
      <trkpt lat="45.65457" lon="4.70733">
        <ele>330.35</ele>
        <time>2016-06-10T08:15:44Z</time>
      </trkpt>
      <trkpt lat="45.65475" lon="4.70811">
        <ele>328.43</ele>
        <time>2016-06-10T08:16:00Z</time>
      </trkpt>
      <trkpt lat="45.65496" lon="4.70904">
        <ele>326.5</ele>
        <time>2016-06-10T08:16:19Z</time>
      </trkpt>
      <trkpt lat="45.65517" lon="4.70995">
        <ele>321.22</ele>
        <time>2016-06-10T08:16:38Z</time>
      </trkpt>
      <trkpt lat="45.65544" lon="4.7107">
        <ele>314.97</ele>
        <time>2016-06-10T08:16:54Z</time>
      </trkpt>
      <trkpt lat="45.65573" lon="4.71144">
        <ele>316.41</ele>
        <time>2016-06-10T08:17:09Z</time>
      </trkpt>
      <trkpt lat="45.65594" lon="4.71264">
        <ele>316.41</ele>
        <time>2016-06-10T08:17:31Z</time>
      </trkpt>
      <trkpt lat="45.65611" lon="4.71365">
        <ele>315.93</ele>
        <time>2016-06-10T08:17:51Z</time>
      </trkpt>
      <trkpt lat="45.6562" lon="4.71449">
        <ele>315.45</ele>
        <time>2016-06-10T08:18:08Z</time>
      </trkpt>
      <trkpt lat="45.65601" lon="4.71477">
        <ele>312.09</ele>
        <time>2016-06-10T08:18:17Z</time>
      </trkpt>
      <trkpt lat="45.65547" lon="4.71456">
        <ele>311.6</ele>
        <time>2016-06-10T08:18:32Z</time>
      </trkpt>
      <trkpt lat="45.65488" lon="4.7143">
        <ele>312.09</ele>
        <time>2016-06-10T08:18:51Z</time>
      </trkpt>
      <trkpt lat="45.65452" lon="4.71414">
        <ele>309.68</ele>
        <time>2016-06-10T08:19:05Z</time>
      </trkpt>
      <trkpt lat="45.65416" lon="4.71388">
        <ele>305.36</ele>
        <time>2016-06-10T08:19:19Z</time>
      </trkpt>
      <trkpt lat="45.65381" lon="4.71361">
        <ele>303.43</ele>
        <time>2016-06-10T08:19:31Z</time>
      </trkpt>
      <trkpt lat="45.65365" lon="4.71345">
        <ele>302.47</ele>
        <time>2016-06-10T08:19:37Z</time>
      </trkpt>
      <trkpt lat="45.6532" lon="4.71302">
        <ele>298.63</ele>
        <time>2016-06-10T08:19:50Z</time>
      </trkpt>
      <trkpt lat="45.65272" lon="4.71287">
        <ele>296.22</ele>
        <time>2016-06-10T08:20:05Z</time>
      </trkpt>
      <trkpt lat="45.65232" lon="4.71294">
        <ele>300.55</ele>
        <time>2016-06-10T08:20:20Z</time>
      </trkpt>
      <trkpt lat="45.65202" lon="4.71297">
        <ele>304.39</ele>
        <time>2016-06-10T08:20:32Z</time>
      </trkpt>
      <trkpt lat="45.65157" lon="4.71307">
        <ele>306.8</ele>
        <time>2016-06-10T08:20:49Z</time>
      </trkpt>
      <trkpt lat="45.65109" lon="4.71318">
        <ele>308.72</ele>
        <time>2016-06-10T08:21:07Z</time>
      </trkpt>
      <trkpt lat="45.65071" lon="4.7132">
        <ele>308.72</ele>
        <time>2016-06-10T08:21:23Z</time>
      </trkpt>
      <trkpt lat="45.65009" lon="4.71308">
        <ele>309.2</ele>
        <time>2016-06-10T08:21:42Z</time>
      </trkpt>
      <trkpt lat="45.64944" lon="4.71279">
        <ele>307.76</ele>
        <time>2016-06-10T08:22:04Z</time>
      </trkpt>
      <trkpt lat="45.6489" lon="4.71276">
        <ele>306.32</ele>
        <time>2016-06-10T08:22:19Z</time>
      </trkpt>
      <trkpt lat="45.64836" lon="4.71292">
        <ele>307.28</ele>
        <time>2016-06-10T08:22:36Z</time>
      </trkpt>
      <trkpt lat="45.64783" lon="4.71308">
        <ele>307.28</ele>
        <time>2016-06-10T08:22:56Z</time>
      </trkpt>
      <trkpt lat="45.6473" lon="4.7131">
        <ele>310.16</ele>
        <time>2016-06-10T08:23:15Z</time>
      </trkpt>
      <trkpt lat="45.64675" lon="4.7131">
        <ele>312.09</ele>
        <time>2016-06-10T08:23:37Z</time>
      </trkpt>
      <trkpt lat="45.64632" lon="4.71328">
        <ele>313.05</ele>
        <time>2016-06-10T08:23:56Z</time>
      </trkpt>
      <trkpt lat="45.64588" lon="4.71377">
        <ele>314.01</ele>
        <time>2016-06-10T08:24:12Z</time>
      </trkpt>
      <trkpt lat="45.64542" lon="4.71422">
        <ele>308.72</ele>
        <time>2016-06-10T08:24:30Z</time>
      </trkpt>
      <trkpt lat="45.64507" lon="4.71443">
        <ele>307.76</ele>
        <time>2016-06-10T08:24:46Z</time>
      </trkpt>
      <trkpt lat="45.64471" lon="4.71464">
        <ele>308.72</ele>
        <time>2016-06-10T08:25:02Z</time>
      </trkpt>
      <trkpt lat="45.64429" lon="4.71492">
        <ele>307.76</ele>
        <time>2016-06-10T08:25:19Z</time>
      </trkpt>
      <trkpt lat="45.64375" lon="4.71528">
        <ele>306.32</ele>
        <time>2016-06-10T08:25:38Z</time>
      </trkpt>
      <trkpt lat="45.6436" lon="4.71534">
        <ele>306.32</ele>
        <time>2016-06-10T08:25:44Z</time>
      </trkpt>
      <trkpt lat="45.64351" lon="4.71536">
        <ele>305.84</ele>
        <time>2016-06-10T08:25:54Z</time>
      </trkpt>
      <trkpt lat="45.6435" lon="4.71539">
        <ele>307.76</ele>
        <time>2016-06-10T08:30:29Z</time>
      </trkpt>
      <trkpt lat="45.64348" lon="4.71538">
        <ele>305.84</ele>
        <time>2016-06-10T08:31:30Z</time>
      </trkpt>
      <trkpt lat="45.64347" lon="4.7154">
        <ele>306.32</ele>
        <time>2016-06-10T08:32:05Z</time>
      </trkpt>
      <trkpt lat="45.64345" lon="4.7154">
        <ele>307.76</ele>
        <time>2016-06-10T08:32:28Z</time>
      </trkpt>
      <trkpt lat="45.64335" lon="4.71543">
        <ele>307.76</ele>
        <time>2016-06-10T08:32:50Z</time>
      </trkpt>
      <trkpt lat="45.64329" lon="4.71545">
        <ele>307.76</ele>
        <time>2016-06-10T08:32:53Z</time>
      </trkpt>
      <trkpt lat="45.64319" lon="4.7155">
        <ele>307.76</ele>
        <time>2016-06-10T08:32:59Z</time>
      </trkpt>
      <trkpt lat="45.64314" lon="4.71576">
        <ele>308.24</ele>
        <time>2016-06-10T08:33:08Z</time>
      </trkpt>
      <trkpt lat="45.64291" lon="4.71617">
        <ele>311.12</ele>
        <time>2016-06-10T08:33:27Z</time>
      </trkpt>
      <trkpt lat="45.6429" lon="4.71622">
        <ele>311.6</ele>
        <time>2016-06-10T08:33:29Z</time>
      </trkpt>
      <trkpt lat="45.64286" lon="4.71637">
        <ele>312.57</ele>
        <time>2016-06-10T08:33:36Z</time>
      </trkpt>
      <trkpt lat="45.64278" lon="4.71671">
        <ele>315.45</ele>
        <time>2016-06-10T08:33:49Z</time>
      </trkpt>
      <trkpt lat="45.64273" lon="4.71702">
        <ele>316.41</ele>
        <time>2016-06-10T08:34:05Z</time>
      </trkpt>
      <trkpt lat="45.6427" lon="4.71722">
        <ele>317.37</ele>
        <time>2016-06-10T08:34:16Z</time>
      </trkpt>
      <trkpt lat="45.64267" lon="4.71731">
        <ele>318.33</ele>
        <time>2016-06-10T08:34:21Z</time>
      </trkpt>
      <trkpt lat="45.64263" lon="4.71749">
        <ele>319.3</ele>
        <time>2016-06-10T08:34:31Z</time>
      </trkpt>
      <trkpt lat="45.64253" lon="4.71778">
        <ele>318.81</ele>
        <time>2016-06-10T08:34:46Z</time>
      </trkpt>
      <trkpt lat="45.64232" lon="4.71819">
        <ele>322.66</ele>
        <time>2016-06-10T08:35:04Z</time>
      </trkpt>
      <trkpt lat="45.64206" lon="4.71856">
        <ele>324.1</ele>
        <time>2016-06-10T08:35:22Z</time>
      </trkpt>
      <trkpt lat="45.64202" lon="4.71864">
        <ele>325.06</ele>
        <time>2016-06-10T08:35:26Z</time>
      </trkpt>
      <trkpt lat="45.64197" lon="4.71876">
        <ele>325.54</ele>
        <time>2016-06-10T08:35:32Z</time>
      </trkpt>
      <trkpt lat="45.64193" lon="4.71886">
        <ele>326.5</ele>
        <time>2016-06-10T08:35:38Z</time>
      </trkpt>
      <trkpt lat="45.6419" lon="4.71899">
        <ele>327.95</ele>
        <time>2016-06-10T08:35:44Z</time>
      </trkpt>
      <trkpt lat="45.64187" lon="4.71918">
        <ele>328.91</ele>
        <time>2016-06-10T08:35:52Z</time>
      </trkpt>
      <trkpt lat="45.6418" lon="4.71942">
        <ele>327.47</ele>
        <time>2016-06-10T08:36:04Z</time>
      </trkpt>
      <trkpt lat="45.64172" lon="4.7197">
        <ele>333.23</ele>
        <time>2016-06-10T08:36:17Z</time>
      </trkpt>
      <trkpt lat="45.64146" lon="4.72003">
        <ele>333.23</ele>
        <time>2016-06-10T08:36:32Z</time>
      </trkpt>
      <trkpt lat="45.64123" lon="4.72021">
        <ele>333.23</ele>
        <time>2016-06-10T08:36:44Z</time>
      </trkpt>
      <trkpt lat="45.64106" lon="4.72064">
        <ele>331.31</ele>
        <time>2016-06-10T08:36:59Z</time>
      </trkpt>
      <trkpt lat="45.64107" lon="4.72065">
        <ele>334.68</ele>
        <time>2016-06-10T08:37:52Z</time>
      </trkpt>
      <trkpt lat="45.64102" lon="4.72083">
        <ele>332.27</ele>
        <time>2016-06-10T08:38:33Z</time>
      </trkpt>
      <trkpt lat="45.64093" lon="4.72098">
        <ele>333.23</ele>
        <time>2016-06-10T08:38:42Z</time>
      </trkpt>
      <trkpt lat="45.64094" lon="4.72096">
        <ele>333.23</ele>
        <time>2016-06-10T08:38:48Z</time>
      </trkpt>
      <trkpt lat="45.64097" lon="4.72134">
        <ele>327.47</ele>
        <time>2016-06-10T08:39:02Z</time>
      </trkpt>
      <trkpt lat="45.64109" lon="4.72204">
        <ele>328.43</ele>
        <time>2016-06-10T08:39:14Z</time>
      </trkpt>
      <trkpt lat="45.64104" lon="4.72251">
        <ele>331.31</ele>
        <time>2016-06-10T08:39:26Z</time>
      </trkpt>
      <trkpt lat="45.64061" lon="4.72275">
        <ele>333.71</ele>
        <time>2016-06-10T08:39:43Z</time>
      </trkpt>
      <trkpt lat="45.64034" lon="4.72284">
        <ele>337.08</ele>
        <time>2016-06-10T08:39:56Z</time>
      </trkpt>
      <trkpt lat="45.63994" lon="4.72293">
        <ele>337.56</ele>
        <time>2016-06-10T08:40:12Z</time>
      </trkpt>
      <trkpt lat="45.63946" lon="4.72299">
        <ele>336.12</ele>
        <time>2016-06-10T08:40:30Z</time>
      </trkpt>
      <trkpt lat="45.63917" lon="4.72311">
        <ele>336.6</ele>
        <time>2016-06-10T08:40:42Z</time>
      </trkpt>
      <trkpt lat="45.63905" lon="4.72376">
        <ele>334.2</ele>
        <time>2016-06-10T08:40:57Z</time>
      </trkpt>
      <trkpt lat="45.63886" lon="4.72412">
        <ele>338.04</ele>
        <time>2016-06-10T08:41:08Z</time>
      </trkpt>
      <trkpt lat="45.63853" lon="4.72442">
        <ele>339.96</ele>
        <time>2016-06-10T08:41:22Z</time>
      </trkpt>
      <trkpt lat="45.6381" lon="4.72466">
        <ele>339.48</ele>
        <time>2016-06-10T08:41:37Z</time>
      </trkpt>
      <trkpt lat="45.63774" lon="4.72506">
        <ele>337.56</ele>
        <time>2016-06-10T08:41:52Z</time>
      </trkpt>
      <trkpt lat="45.63709" lon="4.72564">
        <ele>335.16</ele>
        <time>2016-06-10T08:42:10Z</time>
      </trkpt>
      <trkpt lat="45.63677" lon="4.72587">
        <ele>334.68</ele>
        <time>2016-06-10T08:42:21Z</time>
      </trkpt>
      <trkpt lat="45.63646" lon="4.72597">
        <ele>334.68</ele>
        <time>2016-06-10T08:42:31Z</time>
      </trkpt>
      <trkpt lat="45.63648" lon="4.72597">
        <ele>334.68</ele>
        <time>2016-06-10T08:42:39Z</time>
      </trkpt>
      <trkpt lat="45.63645" lon="4.72616">
        <ele>332.27</ele>
        <time>2016-06-10T08:42:48Z</time>
      </trkpt>
      <trkpt lat="45.63619" lon="4.72718">
        <ele>327.47</ele>
        <time>2016-06-10T08:42:58Z</time>
      </trkpt>
      <trkpt lat="45.63602" lon="4.7277">
        <ele>325.06</ele>
        <time>2016-06-10T08:43:06Z</time>
      </trkpt>
      <trkpt lat="45.63582" lon="4.72839">
        <ele>323.14</ele>
        <time>2016-06-10T08:43:20Z</time>
      </trkpt>
      <trkpt lat="45.63555" lon="4.72918">
        <ele>320.26</ele>
        <time>2016-06-10T08:43:37Z</time>
      </trkpt>
      <trkpt lat="45.63523" lon="4.72978">
        <ele>317.85</ele>
        <time>2016-06-10T08:43:49Z</time>
      </trkpt>
      <trkpt lat="45.6351" lon="4.73">
        <ele>316.89</ele>
        <time>2016-06-10T08:43:53Z</time>
      </trkpt>
      <trkpt lat="45.63497" lon="4.73019">
        <ele>316.41</ele>
        <time>2016-06-10T08:43:57Z</time>
      </trkpt>
      <trkpt lat="45.63449" lon="4.73083">
        <ele>314.49</ele>
        <time>2016-06-10T08:44:13Z</time>
      </trkpt>
      <trkpt lat="45.6341" lon="4.73139">
        <ele>311.6</ele>
        <time>2016-06-10T08:44:29Z</time>
      </trkpt>
      <trkpt lat="45.63386" lon="4.73172">
        <ele>310.16</ele>
        <time>2016-06-10T08:44:44Z</time>
      </trkpt>
      <trkpt lat="45.63379" lon="4.7318">
        <ele>310.16</ele>
        <time>2016-06-10T08:44:50Z</time>
      </trkpt>
      <trkpt lat="45.63364" lon="4.73189">
        <ele>310.64</ele>
        <time>2016-06-10T08:45:00Z</time>
      </trkpt>
      <trkpt lat="45.63351" lon="4.7323">
        <ele>309.2</ele>
        <time>2016-06-10T08:45:11Z</time>
      </trkpt>
      <trkpt lat="45.63338" lon="4.73254">
        <ele>308.24</ele>
        <time>2016-06-10T08:45:17Z</time>
      </trkpt>
      <trkpt lat="45.63331" lon="4.73286">
        <ele>305.84</ele>
        <time>2016-06-10T08:45:23Z</time>
      </trkpt>
      <trkpt lat="45.63328" lon="4.73349">
        <ele>301.03</ele>
        <time>2016-06-10T08:45:39Z</time>
      </trkpt>
      <trkpt lat="45.63305" lon="4.73405">
        <ele>299.59</ele>
        <time>2016-06-10T08:45:52Z</time>
      </trkpt>
      <trkpt lat="45.63271" lon="4.73466">
        <ele>296.7</ele>
        <time>2016-06-10T08:46:08Z</time>
      </trkpt>
      <trkpt lat="45.63228" lon="4.73507">
        <ele>295.74</ele>
        <time>2016-06-10T08:46:23Z</time>
      </trkpt>
      <trkpt lat="45.63173" lon="4.73536">
        <ele>296.7</ele>
        <time>2016-06-10T08:46:39Z</time>
      </trkpt>
      <trkpt lat="45.63105" lon="4.73558">
        <ele>296.22</ele>
        <time>2016-06-10T08:46:59Z</time>
      </trkpt>
      <trkpt lat="45.6304" lon="4.73581">
        <ele>295.74</ele>
        <time>2016-06-10T08:47:19Z</time>
      </trkpt>
      <trkpt lat="45.62999" lon="4.73593">
        <ele>295.74</ele>
        <time>2016-06-10T08:47:33Z</time>
      </trkpt>
      <trkpt lat="45.62954" lon="4.73611">
        <ele>295.26</ele>
        <time>2016-06-10T08:47:47Z</time>
      </trkpt>
      <trkpt lat="45.62914" lon="4.73661">
        <ele>293.82</ele>
        <time>2016-06-10T08:48:02Z</time>
      </trkpt>
      <trkpt lat="45.62875" lon="4.73724">
        <ele>291.9</ele>
        <time>2016-06-10T08:48:18Z</time>
      </trkpt>
      <trkpt lat="45.62858" lon="4.73799">
        <ele>291.9</ele>
        <time>2016-06-10T08:48:35Z</time>
      </trkpt>
      <trkpt lat="45.62852" lon="4.73861">
        <ele>292.38</ele>
        <time>2016-06-10T08:48:49Z</time>
      </trkpt>
      <trkpt lat="45.6284" lon="4.73907">
        <ele>292.86</ele>
        <time>2016-06-10T08:49:01Z</time>
      </trkpt>
      <trkpt lat="45.62826" lon="4.73956">
        <ele>293.82</ele>
        <time>2016-06-10T08:49:14Z</time>
      </trkpt>
      <trkpt lat="45.62807" lon="4.74014">
        <ele>293.82</ele>
        <time>2016-06-10T08:49:28Z</time>
      </trkpt>
      <trkpt lat="45.62786" lon="4.74091">
        <ele>295.74</ele>
        <time>2016-06-10T08:49:47Z</time>
      </trkpt>
      <trkpt lat="45.62779" lon="4.74154">
        <ele>296.7</ele>
        <time>2016-06-10T08:50:02Z</time>
      </trkpt>
      <trkpt lat="45.62765" lon="4.74187">
        <ele>296.7</ele>
        <time>2016-06-10T08:50:15Z</time>
      </trkpt>
      <trkpt lat="45.6276" lon="4.74195">
        <ele>296.7</ele>
        <time>2016-06-10T08:50:19Z</time>
      </trkpt>
      <trkpt lat="45.62756" lon="4.74199">
        <ele>296.7</ele>
        <time>2016-06-10T08:50:42Z</time>
      </trkpt>
      <trkpt lat="45.62756" lon="4.742">
        <ele>296.7</ele>
        <time>2016-06-10T08:50:58Z</time>
      </trkpt>
      <trkpt lat="45.62732" lon="4.74237">
        <ele>298.15</ele>
        <time>2016-06-10T08:51:15Z</time>
      </trkpt>
      <trkpt lat="45.62697" lon="4.74273">
        <ele>297.18</ele>
        <time>2016-06-10T08:51:32Z</time>
      </trkpt>
      <trkpt lat="45.62643" lon="4.74316">
        <ele>295.74</ele>
        <time>2016-06-10T08:51:50Z</time>
      </trkpt>
      <trkpt lat="45.62568" lon="4.74363">
        <ele>293.34</ele>
        <time>2016-06-10T08:52:10Z</time>
      </trkpt>
      <trkpt lat="45.62495" lon="4.74394">
        <ele>289.01</ele>
        <time>2016-06-10T08:52:29Z</time>
      </trkpt>
      <trkpt lat="45.62434" lon="4.7441">
        <ele>286.13</ele>
        <time>2016-06-10T08:52:45Z</time>
      </trkpt>
      <trkpt lat="45.62376" lon="4.74436">
        <ele>283.25</ele>
        <time>2016-06-10T08:53:00Z</time>
      </trkpt>
      <trkpt lat="45.6233" lon="4.74467">
        <ele>284.21</ele>
        <time>2016-06-10T08:53:15Z</time>
      </trkpt>
      <trkpt lat="45.62294" lon="4.7452">
        <ele>282.77</ele>
        <time>2016-06-10T08:53:31Z</time>
      </trkpt>
      <trkpt lat="45.62256" lon="4.74567">
        <ele>282.77</ele>
        <time>2016-06-10T08:53:46Z</time>
      </trkpt>
      <trkpt lat="45.62245" lon="4.74581">
        <ele>283.25</ele>
        <time>2016-06-10T08:53:51Z</time>
      </trkpt>
      <trkpt lat="45.62229" lon="4.7459">
        <ele>283.25</ele>
        <time>2016-06-10T08:53:57Z</time>
      </trkpt>
      <trkpt lat="45.6222" lon="4.7462">
        <ele>282.28</ele>
        <time>2016-06-10T08:54:05Z</time>
      </trkpt>
      <trkpt lat="45.6219" lon="4.7469">
        <ele>283.25</ele>
        <time>2016-06-10T08:54:24Z</time>
      </trkpt>
      <trkpt lat="45.62157" lon="4.74742">
        <ele>284.69</ele>
        <time>2016-06-10T08:54:41Z</time>
      </trkpt>
      <trkpt lat="45.62134" lon="4.74784">
        <ele>285.65</ele>
        <time>2016-06-10T08:54:54Z</time>
      </trkpt>
      <trkpt lat="45.62104" lon="4.74776">
        <ele>287.09</ele>
        <time>2016-06-10T08:55:07Z</time>
      </trkpt>
      <trkpt lat="45.62097" lon="4.74752">
        <ele>287.57</ele>
        <time>2016-06-10T08:55:15Z</time>
      </trkpt>
      <trkpt lat="45.62091" lon="4.74743">
        <ele>288.05</ele>
        <time>2016-06-10T08:55:25Z</time>
      </trkpt>
      <trkpt lat="45.6209" lon="4.74748">
        <ele>288.05</ele>
        <time>2016-06-10T08:59:05Z</time>
      </trkpt>
      <trkpt lat="45.62081" lon="4.74754">
        <ele>288.05</ele>
        <time>2016-06-10T08:59:11Z</time>
      </trkpt>
      <trkpt lat="45.6205" lon="4.74736">
        <ele>290.94</ele>
        <time>2016-06-10T08:59:29Z</time>
      </trkpt>
      <trkpt lat="45.62022" lon="4.74699">
        <ele>291.9</ele>
        <time>2016-06-10T08:59:44Z</time>
      </trkpt>
      <trkpt lat="45.61985" lon="4.74663">
        <ele>292.38</ele>
        <time>2016-06-10T09:00:00Z</time>
      </trkpt>
      <trkpt lat="45.6198" lon="4.74661">
        <ele>292.86</ele>
        <time>2016-06-10T09:00:02Z</time>
      </trkpt>
      <trkpt lat="45.61974" lon="4.7465">
        <ele>292.86</ele>
        <time>2016-06-10T09:00:06Z</time>
      </trkpt>
      <trkpt lat="45.61974" lon="4.74641">
        <ele>292.38</ele>
        <time>2016-06-10T09:00:08Z</time>
      </trkpt>
      <trkpt lat="45.61966" lon="4.74576">
        <ele>291.42</ele>
        <time>2016-06-10T09:00:24Z</time>
      </trkpt>
      <trkpt lat="45.61953" lon="4.74536">
        <ele>291.9</ele>
        <time>2016-06-10T09:00:36Z</time>
      </trkpt>
      <trkpt lat="45.61935" lon="4.74491">
        <ele>291.42</ele>
        <time>2016-06-10T09:00:48Z</time>
      </trkpt>
      <trkpt lat="45.61927" lon="4.74431">
        <ele>290.46</ele>
        <time>2016-06-10T09:01:05Z</time>
      </trkpt>
      <trkpt lat="45.61917" lon="4.74377">
        <ele>290.46</ele>
        <time>2016-06-10T09:01:20Z</time>
      </trkpt>
      <trkpt lat="45.61902" lon="4.74306">
        <ele>292.86</ele>
        <time>2016-06-10T09:01:40Z</time>
      </trkpt>
      <trkpt lat="45.61885" lon="4.74266">
        <ele>296.22</ele>
        <time>2016-06-10T09:01:55Z</time>
      </trkpt>
      <trkpt lat="45.61864" lon="4.74217">
        <ele>298.63</ele>
        <time>2016-06-10T09:02:13Z</time>
      </trkpt>
      <trkpt lat="45.61846" lon="4.74171">
        <ele>299.59</ele>
        <time>2016-06-10T09:02:28Z</time>
      </trkpt>
      <trkpt lat="45.61822" lon="4.74143">
        <ele>298.63</ele>
        <time>2016-06-10T09:02:41Z</time>
      </trkpt>
      <trkpt lat="45.61789" lon="4.74113">
        <ele>299.11</ele>
        <time>2016-06-10T09:02:57Z</time>
      </trkpt>
      <trkpt lat="45.61757" lon="4.74066">
        <ele>300.07</ele>
        <time>2016-06-10T09:03:12Z</time>
      </trkpt>
      <trkpt lat="45.61716" lon="4.74012">
        <ele>301.99</ele>
        <time>2016-06-10T09:03:29Z</time>
      </trkpt>
      <trkpt lat="45.61687" lon="4.73937">
        <ele>302.95</ele>
        <time>2016-06-10T09:03:48Z</time>
      </trkpt>
      <trkpt lat="45.6168" lon="4.73886">
        <ele>302.47</ele>
        <time>2016-06-10T09:04:04Z</time>
      </trkpt>
      <trkpt lat="45.61686" lon="4.73865">
        <ele>302.47</ele>
        <time>2016-06-10T09:04:11Z</time>
      </trkpt>
      <trkpt lat="45.61705" lon="4.73804">
        <ele>300.55</ele>
        <time>2016-06-10T09:04:26Z</time>
      </trkpt>
      <trkpt lat="45.61717" lon="4.73762">
        <ele>299.59</ele>
        <time>2016-06-10T09:04:35Z</time>
      </trkpt>
      <trkpt lat="45.61715" lon="4.73726">
        <ele>298.15</ele>
        <time>2016-06-10T09:04:42Z</time>
      </trkpt>
      <trkpt lat="45.61669" lon="4.73693">
        <ele>293.82</ele>
        <time>2016-06-10T09:04:58Z</time>
      </trkpt>
      <trkpt lat="45.61641" lon="4.7366">
        <ele>291.42</ele>
        <time>2016-06-10T09:05:07Z</time>
      </trkpt>
      <trkpt lat="45.61604" lon="4.7357">
        <ele>289.49</ele>
        <time>2016-06-10T09:05:25Z</time>
      </trkpt>
      <trkpt lat="45.61581" lon="4.73505">
        <ele>288.53</ele>
        <time>2016-06-10T09:05:36Z</time>
      </trkpt>
      <trkpt lat="45.61561" lon="4.73433">
        <ele>289.97</ele>
        <time>2016-06-10T09:05:51Z</time>
      </trkpt>
      <trkpt lat="45.6153" lon="4.73419">
        <ele>290.46</ele>
        <time>2016-06-10T09:06:01Z</time>
      </trkpt>
      <trkpt lat="45.61484" lon="4.7343">
        <ele>288.53</ele>
        <time>2016-06-10T09:06:16Z</time>
      </trkpt>
      <trkpt lat="45.61442" lon="4.7344">
        <ele>289.49</ele>
        <time>2016-06-10T09:06:32Z</time>
      </trkpt>
      <trkpt lat="45.61396" lon="4.73441">
        <ele>290.94</ele>
        <time>2016-06-10T09:06:50Z</time>
      </trkpt>
      <trkpt lat="45.61347" lon="4.73439">
        <ele>292.38</ele>
        <time>2016-06-10T09:07:09Z</time>
      </trkpt>
      <trkpt lat="45.61288" lon="4.73436">
        <ele>291.42</ele>
        <time>2016-06-10T09:07:32Z</time>
      </trkpt>
      <trkpt lat="45.61236" lon="4.73435">
        <ele>293.34</ele>
        <time>2016-06-10T09:07:53Z</time>
      </trkpt>
      <trkpt lat="45.61187" lon="4.73437">
        <ele>295.26</ele>
        <time>2016-06-10T09:08:13Z</time>
      </trkpt>
      <trkpt lat="45.61147" lon="4.73477">
        <ele>295.26</ele>
        <time>2016-06-10T09:08:33Z</time>
      </trkpt>
      <trkpt lat="45.61104" lon="4.73497">
        <ele>298.63</ele>
        <time>2016-06-10T09:08:50Z</time>
      </trkpt>
      <trkpt lat="45.61064" lon="4.73475">
        <ele>300.55</ele>
        <time>2016-06-10T09:09:08Z</time>
      </trkpt>
      <trkpt lat="45.61011" lon="4.73445">
        <ele>299.11</ele>
        <time>2016-06-10T09:09:30Z</time>
      </trkpt>
      <trkpt lat="45.60964" lon="4.73421">
        <ele>302.95</ele>
        <time>2016-06-10T09:09:50Z</time>
      </trkpt>
      <trkpt lat="45.60919" lon="4.73397">
        <ele>303.91</ele>
        <time>2016-06-10T09:10:11Z</time>
      </trkpt>
      <trkpt lat="45.60876" lon="4.73375">
        <ele>304.39</ele>
        <time>2016-06-10T09:10:30Z</time>
      </trkpt>
      <trkpt lat="45.60835" lon="4.73358">
        <ele>306.32</ele>
        <time>2016-06-10T09:10:49Z</time>
      </trkpt>
      <trkpt lat="45.60796" lon="4.73342">
        <ele>311.6</ele>
        <time>2016-06-10T09:11:08Z</time>
      </trkpt>
      <trkpt lat="45.60765" lon="4.73327">
        <ele>312.57</ele>
        <time>2016-06-10T09:11:25Z</time>
      </trkpt>
      <trkpt lat="45.60736" lon="4.73314">
        <ele>313.53</ele>
        <time>2016-06-10T09:11:40Z</time>
      </trkpt>
      <trkpt lat="45.60704" lon="4.73296">
        <ele>314.97</ele>
        <time>2016-06-10T09:11:55Z</time>
      </trkpt>
      <trkpt lat="45.60678" lon="4.73283">
        <ele>315.45</ele>
        <time>2016-06-10T09:12:06Z</time>
      </trkpt>
      <trkpt lat="45.6064" lon="4.73251">
        <ele>315.45</ele>
        <time>2016-06-10T09:12:22Z</time>
      </trkpt>
      <trkpt lat="45.60634" lon="4.73249">
        <ele>315.45</ele>
        <time>2016-06-10T09:12:36Z</time>
      </trkpt>
      <trkpt lat="45.60634" lon="4.73249">
        <ele>316.89</ele>
        <time>2016-06-10T09:14:05Z</time>
      </trkpt>
      <trkpt lat="45.60625" lon="4.7324">
        <ele>320.26</ele>
        <time>2016-06-10T09:14:16Z</time>
      </trkpt>
      <trkpt lat="45.60623" lon="4.73239">
        <ele>320.74</ele>
        <time>2016-06-10T09:14:36Z</time>
      </trkpt>
      <trkpt lat="45.6062" lon="4.73239">
        <ele>320.26</ele>
        <time>2016-06-10T09:14:39Z</time>
      </trkpt>
      <trkpt lat="45.60594" lon="4.73245">
        <ele>318.81</ele>
        <time>2016-06-10T09:14:49Z</time>
      </trkpt>
      <trkpt lat="45.60558" lon="4.73201">
        <ele>314.01</ele>
        <time>2016-06-10T09:15:03Z</time>
      </trkpt>
      <trkpt lat="45.60526" lon="4.73183">
        <ele>310.16</ele>
        <time>2016-06-10T09:15:15Z</time>
      </trkpt>
      <trkpt lat="45.60522" lon="4.73181">
        <ele>309.68</ele>
        <time>2016-06-10T09:15:16Z</time>
      </trkpt>
      <trkpt lat="45.60462" lon="4.7316">
        <ele>303.91</ele>
        <time>2016-06-10T09:15:31Z</time>
      </trkpt>
      <trkpt lat="45.6045" lon="4.73157">
        <ele>302.95</ele>
        <time>2016-06-10T09:15:34Z</time>
      </trkpt>
      <trkpt lat="45.6043" lon="4.73156">
        <ele>301.99</ele>
        <time>2016-06-10T09:15:39Z</time>
      </trkpt>
      <trkpt lat="45.60388" lon="4.7314">
        <ele>303.43</ele>
        <time>2016-06-10T09:15:50Z</time>
      </trkpt>
      <trkpt lat="45.60378" lon="4.73108">
        <ele>305.84</ele>
        <time>2016-06-10T09:15:56Z</time>
      </trkpt>
      <trkpt lat="45.604" lon="4.73054">
        <ele>305.84</ele>
        <time>2016-06-10T09:16:12Z</time>
      </trkpt>
      <trkpt lat="45.604" lon="4.72998">
        <ele>307.28</ele>
        <time>2016-06-10T09:16:29Z</time>
      </trkpt>
      <trkpt lat="45.60407" lon="4.72946">
        <ele>309.2</ele>
        <time>2016-06-10T09:16:44Z</time>
      </trkpt>
      <trkpt lat="45.6044" lon="4.72965">
        <ele>306.8</ele>
        <time>2016-06-10T09:17:00Z</time>
      </trkpt>
      <trkpt lat="45.60477" lon="4.72998">
        <ele>305.84</ele>
        <time>2016-06-10T09:17:19Z</time>
      </trkpt>
      <trkpt lat="45.60489" lon="4.73008">
        <ele>306.8</ele>
        <time>2016-06-10T09:17:25Z</time>
      </trkpt>
      <trkpt lat="45.60497" lon="4.73014">
        <ele>306.8</ele>
        <time>2016-06-10T09:17:29Z</time>
      </trkpt>
      <trkpt lat="45.60526" lon="4.73031">
        <ele>312.09</ele>
        <time>2016-06-10T09:17:42Z</time>
      </trkpt>
      <trkpt lat="45.60542" lon="4.72983">
        <ele>315.93</ele>
        <time>2016-06-10T09:17:57Z</time>
      </trkpt>
      <trkpt lat="45.60551" lon="4.72928">
        <ele>318.33</ele>
        <time>2016-06-10T09:18:12Z</time>
      </trkpt>
      <trkpt lat="45.60561" lon="4.72874">
        <ele>318.33</ele>
        <time>2016-06-10T09:18:24Z</time>
      </trkpt>
      <trkpt lat="45.60578" lon="4.72827">
        <ele>319.78</ele>
        <time>2016-06-10T09:18:38Z</time>
      </trkpt>
      <trkpt lat="45.60593" lon="4.72809">
        <ele>319.78</ele>
        <time>2016-06-10T09:18:47Z</time>
      </trkpt>
      <trkpt lat="45.60607" lon="4.72815">
        <ele>320.26</ele>
        <time>2016-06-10T09:18:54Z</time>
      </trkpt>
      <trkpt lat="45.60614" lon="4.72816">
        <ele>320.74</ele>
        <time>2016-06-10T09:18:57Z</time>
      </trkpt>
      <trkpt lat="45.60621" lon="4.72819">
        <ele>321.22</ele>
        <time>2016-06-10T09:19:10Z</time>
      </trkpt>
      <trkpt lat="45.6062" lon="4.72818">
        <ele>321.7</ele>
        <time>2016-06-10T09:29:38Z</time>
      </trkpt>
    </trkseg>
  </trk>
  <trk>
    <name><![CDATA[ACTIVE LOG: 10 JUN 2016 12:51]]></name>
    <trkseg>
      <trkpt lat="45.60637" lon="4.72785">
        <ele>361.59</ele>
        <time>2016-06-10T10:51:54Z</time>
      </trkpt>
      <trkpt lat="45.60639" lon="4.72828">
        <ele>329.87</ele>
        <time>2016-06-10T10:52:22Z</time>
      </trkpt>
      <trkpt lat="45.60641" lon="4.72827">
        <ele>332.27</ele>
        <time>2016-06-10T10:52:40Z</time>
      </trkpt>
      <trkpt lat="45.60642" lon="4.72827">
        <ele>331.79</ele>
        <time>2016-06-10T10:53:12Z</time>
      </trkpt>
      <trkpt lat="45.60647" lon="4.72829">
        <ele>331.31</ele>
        <time>2016-06-10T10:53:19Z</time>
      </trkpt>
      <trkpt lat="45.60666" lon="4.72836">
        <ele>333.23</ele>
        <time>2016-06-10T10:53:29Z</time>
      </trkpt>
      <trkpt lat="45.60706" lon="4.72853">
        <ele>335.64</ele>
        <time>2016-06-10T10:53:49Z</time>
      </trkpt>
      <trkpt lat="45.60713" lon="4.72894">
        <ele>336.12</ele>
        <time>2016-06-10T10:54:04Z</time>
      </trkpt>
      <trkpt lat="45.60716" lon="4.72937">
        <ele>336.12</ele>
        <time>2016-06-10T10:54:20Z</time>
      </trkpt>
      <trkpt lat="45.60712" lon="4.72965">
        <ele>336.6</ele>
        <time>2016-06-10T10:54:32Z</time>
      </trkpt>
      <trkpt lat="45.60715" lon="4.72975">
        <ele>336.6</ele>
        <time>2016-06-10T10:54:36Z</time>
      </trkpt>
      <trkpt lat="45.6076" lon="4.72952">
        <ele>335.64</ele>
        <time>2016-06-10T10:54:52Z</time>
      </trkpt>
      <trkpt lat="45.60807" lon="4.72921">
        <ele>337.08</ele>
        <time>2016-06-10T10:55:12Z</time>
      </trkpt>
      <trkpt lat="45.60841" lon="4.72863">
        <ele>334.2</ele>
        <time>2016-06-10T10:55:34Z</time>
      </trkpt>
      <trkpt lat="45.60877" lon="4.72813">
        <ele>331.31</ele>
        <time>2016-06-10T10:55:55Z</time>
      </trkpt>
      <trkpt lat="45.60916" lon="4.72751">
        <ele>332.75</ele>
        <time>2016-06-10T10:56:16Z</time>
      </trkpt>
      <trkpt lat="45.60938" lon="4.72687">
        <ele>333.71</ele>
        <time>2016-06-10T10:56:35Z</time>
      </trkpt>
      <trkpt lat="45.60955" lon="4.72627">
        <ele>334.2</ele>
        <time>2016-06-10T10:56:53Z</time>
      </trkpt>
      <trkpt lat="45.6097" lon="4.72566">
        <ele>335.64</ele>
        <time>2016-06-10T10:57:10Z</time>
      </trkpt>
      <trkpt lat="45.60998" lon="4.72494">
        <ele>333.23</ele>
        <time>2016-06-10T10:57:32Z</time>
      </trkpt>
      <trkpt lat="45.61017" lon="4.72439">
        <ele>333.23</ele>
        <time>2016-06-10T10:57:48Z</time>
      </trkpt>
      <trkpt lat="45.61047" lon="4.72355">
        <ele>331.79</ele>
        <time>2016-06-10T10:58:07Z</time>
      </trkpt>
      <trkpt lat="45.61066" lon="4.72279">
        <ele>330.35</ele>
        <time>2016-06-10T10:58:25Z</time>
      </trkpt>
      <trkpt lat="45.61083" lon="4.72206">
        <ele>327.95</ele>
        <time>2016-06-10T10:58:41Z</time>
      </trkpt>
      <trkpt lat="45.61105" lon="4.72106">
        <ele>326.02</ele>
        <time>2016-06-10T10:59:01Z</time>
      </trkpt>
      <trkpt lat="45.61123" lon="4.72042">
        <ele>326.02</ele>
        <time>2016-06-10T10:59:16Z</time>
      </trkpt>
      <trkpt lat="45.61168" lon="4.71967">
        <ele>326.99</ele>
        <time>2016-06-10T10:59:34Z</time>
      </trkpt>
      <trkpt lat="45.61211" lon="4.71903">
        <ele>326.5</ele>
        <time>2016-06-10T10:59:54Z</time>
      </trkpt>
      <trkpt lat="45.61254" lon="4.71846">
        <ele>326.5</ele>
        <time>2016-06-10T11:00:14Z</time>
      </trkpt>
      <trkpt lat="45.61295" lon="4.71795">
        <ele>325.54</ele>
        <time>2016-06-10T11:00:35Z</time>
      </trkpt>
      <trkpt lat="45.61326" lon="4.71755">
        <ele>325.06</ele>
        <time>2016-06-10T11:00:52Z</time>
      </trkpt>
      <trkpt lat="45.61382" lon="4.71682">
        <ele>322.18</ele>
        <time>2016-06-10T11:01:09Z</time>
      </trkpt>
      <trkpt lat="45.61464" lon="4.71571">
        <ele>319.78</ele>
        <time>2016-06-10T11:01:30Z</time>
      </trkpt>
      <trkpt lat="45.61517" lon="4.7148">
        <ele>318.33</ele>
        <time>2016-06-10T11:01:47Z</time>
      </trkpt>
      <trkpt lat="45.61569" lon="4.71409">
        <ele>318.33</ele>
        <time>2016-06-10T11:02:05Z</time>
      </trkpt>
      <trkpt lat="45.61615" lon="4.71335">
        <ele>317.85</ele>
        <time>2016-06-10T11:02:26Z</time>
      </trkpt>
      <trkpt lat="45.61645" lon="4.71272">
        <ele>318.33</ele>
        <time>2016-06-10T11:02:43Z</time>
      </trkpt>
      <trkpt lat="45.61692" lon="4.71184">
        <ele>322.18</ele>
        <time>2016-06-10T11:03:03Z</time>
      </trkpt>
      <trkpt lat="45.61734" lon="4.71112">
        <ele>326.5</ele>
        <time>2016-06-10T11:03:21Z</time>
      </trkpt>
      <trkpt lat="45.61776" lon="4.71054">
        <ele>326.02</ele>
        <time>2016-06-10T11:03:38Z</time>
      </trkpt>
      <trkpt lat="45.61823" lon="4.71036">
        <ele>323.62</ele>
        <time>2016-06-10T11:03:53Z</time>
      </trkpt>
      <trkpt lat="45.61844" lon="4.71027">
        <ele>322.66</ele>
        <time>2016-06-10T11:04:01Z</time>
      </trkpt>
      <trkpt lat="45.61856" lon="4.71034">
        <ele>321.7</ele>
        <time>2016-06-10T11:04:11Z</time>
      </trkpt>
      <trkpt lat="45.61867" lon="4.71031">
        <ele>321.22</ele>
        <time>2016-06-10T11:04:19Z</time>
      </trkpt>
      <trkpt lat="45.61879" lon="4.71011">
        <ele>321.22</ele>
        <time>2016-06-10T11:04:23Z</time>
      </trkpt>
      <trkpt lat="45.61906" lon="4.70927">
        <ele>321.22</ele>
        <time>2016-06-10T11:04:38Z</time>
      </trkpt>
      <trkpt lat="45.6193" lon="4.70863">
        <ele>322.18</ele>
        <time>2016-06-10T11:04:54Z</time>
      </trkpt>
      <trkpt lat="45.61983" lon="4.70779">
        <ele>322.66</ele>
        <time>2016-06-10T11:05:18Z</time>
      </trkpt>
      <trkpt lat="45.62019" lon="4.7073">
        <ele>323.62</ele>
        <time>2016-06-10T11:05:34Z</time>
      </trkpt>
      <trkpt lat="45.62064" lon="4.70688">
        <ele>325.06</ele>
        <time>2016-06-10T11:05:53Z</time>
      </trkpt>
      <trkpt lat="45.62098" lon="4.70637">
        <ele>326.5</ele>
        <time>2016-06-10T11:06:10Z</time>
      </trkpt>
      <trkpt lat="45.6215" lon="4.70577">
        <ele>326.02</ele>
        <time>2016-06-10T11:06:32Z</time>
      </trkpt>
      <trkpt lat="45.62197" lon="4.70553">
        <ele>327.47</ele>
        <time>2016-06-10T11:06:49Z</time>
      </trkpt>
      <trkpt lat="45.62246" lon="4.70514">
        <ele>328.43</ele>
        <time>2016-06-10T11:07:10Z</time>
      </trkpt>
      <trkpt lat="45.62291" lon="4.70444">
        <ele>331.79</ele>
        <time>2016-06-10T11:07:34Z</time>
      </trkpt>
      <trkpt lat="45.62347" lon="4.70386">
        <ele>332.75</ele>
        <time>2016-06-10T11:07:56Z</time>
      </trkpt>
      <trkpt lat="45.62402" lon="4.70351">
        <ele>331.79</ele>
        <time>2016-06-10T11:08:14Z</time>
      </trkpt>
      <trkpt lat="45.62443" lon="4.70329">
        <ele>332.75</ele>
        <time>2016-06-10T11:08:29Z</time>
      </trkpt>
      <trkpt lat="45.6251" lon="4.70296">
        <ele>329.39</ele>
        <time>2016-06-10T11:08:52Z</time>
      </trkpt>
      <trkpt lat="45.6255" lon="4.70236">
        <ele>327.47</ele>
        <time>2016-06-10T11:09:11Z</time>
      </trkpt>
      <trkpt lat="45.6258" lon="4.70151">
        <ele>327.95</ele>
        <time>2016-06-10T11:09:34Z</time>
      </trkpt>
      <trkpt lat="45.62585" lon="4.70135">
        <ele>327.47</ele>
        <time>2016-06-10T11:09:39Z</time>
      </trkpt>
      <trkpt lat="45.62577" lon="4.70113">
        <ele>327.95</ele>
        <time>2016-06-10T11:09:47Z</time>
      </trkpt>
      <trkpt lat="45.62535" lon="4.70053">
        <ele>326.02</ele>
        <time>2016-06-10T11:10:06Z</time>
      </trkpt>
      <trkpt lat="45.62486" lon="4.69991">
        <ele>322.18</ele>
        <time>2016-06-10T11:10:27Z</time>
      </trkpt>
      <trkpt lat="45.62445" lon="4.69941">
        <ele>322.18</ele>
        <time>2016-06-10T11:10:43Z</time>
      </trkpt>
      <trkpt lat="45.62423" lon="4.6987">
        <ele>328.91</ele>
        <time>2016-06-10T11:11:01Z</time>
      </trkpt>
      <trkpt lat="45.62435" lon="4.69804">
        <ele>331.79</ele>
        <time>2016-06-10T11:11:15Z</time>
      </trkpt>
      <trkpt lat="45.62449" lon="4.69711">
        <ele>332.27</ele>
        <time>2016-06-10T11:11:32Z</time>
      </trkpt>
      <trkpt lat="45.62425" lon="4.6964">
        <ele>332.27</ele>
        <time>2016-06-10T11:11:48Z</time>
      </trkpt>
      <trkpt lat="45.62403" lon="4.69565">
        <ele>330.35</ele>
        <time>2016-06-10T11:12:02Z</time>
      </trkpt>
      <trkpt lat="45.62377" lon="4.69452">
        <ele>325.54</ele>
        <time>2016-06-10T11:12:18Z</time>
      </trkpt>
      <trkpt lat="45.62374" lon="4.6943">
        <ele>325.54</ele>
        <time>2016-06-10T11:12:21Z</time>
      </trkpt>
      <trkpt lat="45.62345" lon="4.6938">
        <ele>324.58</ele>
        <time>2016-06-10T11:12:33Z</time>
      </trkpt>
      <trkpt lat="45.62309" lon="4.6933">
        <ele>319.3</ele>
        <time>2016-06-10T11:12:46Z</time>
      </trkpt>
      <trkpt lat="45.62275" lon="4.69215">
        <ele>314.01</ele>
        <time>2016-06-10T11:13:05Z</time>
      </trkpt>
      <trkpt lat="45.6226" lon="4.69182">
        <ele>312.09</ele>
        <time>2016-06-10T11:13:11Z</time>
      </trkpt>
      <trkpt lat="45.62231" lon="4.69137">
        <ele>308.72</ele>
        <time>2016-06-10T11:13:23Z</time>
      </trkpt>
      <trkpt lat="45.62213" lon="4.69106">
        <ele>308.24</ele>
        <time>2016-06-10T11:13:31Z</time>
      </trkpt>
      <trkpt lat="45.62195" lon="4.69063">
        <ele>307.76</ele>
        <time>2016-06-10T11:13:42Z</time>
      </trkpt>
      <trkpt lat="45.62171" lon="4.69012">
        <ele>315.45</ele>
        <time>2016-06-10T11:13:56Z</time>
      </trkpt>
      <trkpt lat="45.62139" lon="4.68928">
        <ele>320.74</ele>
        <time>2016-06-10T11:14:19Z</time>
      </trkpt>
      <trkpt lat="45.6211" lon="4.68854">
        <ele>321.7</ele>
        <time>2016-06-10T11:14:41Z</time>
      </trkpt>
      <trkpt lat="45.6209" lon="4.68797">
        <ele>324.58</ele>
        <time>2016-06-10T11:14:59Z</time>
      </trkpt>
      <trkpt lat="45.62067" lon="4.68746">
        <ele>325.54</ele>
        <time>2016-06-10T11:15:16Z</time>
      </trkpt>
      <trkpt lat="45.62041" lon="4.68685">
        <ele>329.39</ele>
        <time>2016-06-10T11:15:35Z</time>
      </trkpt>
      <trkpt lat="45.62009" lon="4.68614">
        <ele>331.31</ele>
        <time>2016-06-10T11:15:55Z</time>
      </trkpt>
      <trkpt lat="45.61986" lon="4.68554">
        <ele>335.16</ele>
        <time>2016-06-10T11:16:13Z</time>
      </trkpt>
      <trkpt lat="45.61971" lon="4.68518">
        <ele>338.04</ele>
        <time>2016-06-10T11:16:25Z</time>
      </trkpt>
      <trkpt lat="45.61969" lon="4.68515">
        <ele>338.04</ele>
        <time>2016-06-10T11:16:27Z</time>
      </trkpt>
      <trkpt lat="45.61966" lon="4.68496">
        <ele>338.52</ele>
        <time>2016-06-10T11:16:35Z</time>
      </trkpt>
      <trkpt lat="45.61958" lon="4.68457">
        <ele>339.48</ele>
        <time>2016-06-10T11:16:48Z</time>
      </trkpt>
      <trkpt lat="45.61973" lon="4.68424">
        <ele>339.96</ele>
        <time>2016-06-10T11:16:59Z</time>
      </trkpt>
      <trkpt lat="45.62001" lon="4.68357">
        <ele>340.44</ele>
        <time>2016-06-10T11:17:18Z</time>
      </trkpt>
      <trkpt lat="45.62003" lon="4.68347">
        <ele>341.41</ele>
        <time>2016-06-10T11:17:29Z</time>
      </trkpt>
      <trkpt lat="45.62003" lon="4.68341">
        <ele>342.37</ele>
        <time>2016-06-10T11:19:57Z</time>
      </trkpt>
      <trkpt lat="45.62003" lon="4.68337">
        <ele>342.37</ele>
        <time>2016-06-10T11:20:09Z</time>
      </trkpt>
      <trkpt lat="45.62003" lon="4.68327">
        <ele>342.85</ele>
        <time>2016-06-10T11:20:16Z</time>
      </trkpt>
      <trkpt lat="45.62011" lon="4.68291">
        <ele>345.25</ele>
        <time>2016-06-10T11:20:31Z</time>
      </trkpt>
      <trkpt lat="45.62008" lon="4.68248">
        <ele>348.13</ele>
        <time>2016-06-10T11:20:48Z</time>
      </trkpt>
      <trkpt lat="45.62005" lon="4.68189">
        <ele>350.54</ele>
        <time>2016-06-10T11:21:11Z</time>
      </trkpt>
      <trkpt lat="45.62007" lon="4.68129">
        <ele>353.9</ele>
        <time>2016-06-10T11:21:31Z</time>
      </trkpt>
      <trkpt lat="45.62026" lon="4.68078">
        <ele>351.5</ele>
        <time>2016-06-10T11:21:49Z</time>
      </trkpt>
      <trkpt lat="45.62038" lon="4.68029">
        <ele>351.02</ele>
        <time>2016-06-10T11:22:02Z</time>
      </trkpt>
      <trkpt lat="45.62029" lon="4.67976">
        <ele>353.42</ele>
        <time>2016-06-10T11:22:18Z</time>
      </trkpt>
      <trkpt lat="45.62001" lon="4.67923">
        <ele>354.38</ele>
        <time>2016-06-10T11:22:37Z</time>
      </trkpt>
      <trkpt lat="45.61983" lon="4.6786">
        <ele>360.15</ele>
        <time>2016-06-10T11:22:55Z</time>
      </trkpt>
      <trkpt lat="45.61983" lon="4.67835">
        <ele>361.59</ele>
        <time>2016-06-10T11:23:02Z</time>
      </trkpt>
      <trkpt lat="45.61956" lon="4.67827">
        <ele>362.55</ele>
        <time>2016-06-10T11:23:14Z</time>
      </trkpt>
      <trkpt lat="45.61911" lon="4.67815">
        <ele>363.52</ele>
        <time>2016-06-10T11:23:31Z</time>
      </trkpt>
      <trkpt lat="45.61866" lon="4.67809">
        <ele>365.92</ele>
        <time>2016-06-10T11:23:49Z</time>
      </trkpt>
      <trkpt lat="45.61829" lon="4.67811">
        <ele>367.84</ele>
        <time>2016-06-10T11:24:05Z</time>
      </trkpt>
      <trkpt lat="45.61821" lon="4.67748">
        <ele>367.36</ele>
        <time>2016-06-10T11:24:17Z</time>
      </trkpt>
      <trkpt lat="45.61843" lon="4.67644">
        <ele>366.4</ele>
        <time>2016-06-10T11:24:35Z</time>
      </trkpt>
      <trkpt lat="45.61866" lon="4.67629">
        <ele>364.48</ele>
        <time>2016-06-10T11:24:45Z</time>
      </trkpt>
      <trkpt lat="45.61909" lon="4.67633">
        <ele>367.36</ele>
        <time>2016-06-10T11:24:59Z</time>
      </trkpt>
      <trkpt lat="45.61928" lon="4.6758">
        <ele>368.32</ele>
        <time>2016-06-10T11:25:13Z</time>
      </trkpt>
      <trkpt lat="45.6194" lon="4.67506">
        <ele>368.8</ele>
        <time>2016-06-10T11:25:31Z</time>
      </trkpt>
      <trkpt lat="45.61961" lon="4.67425">
        <ele>367.36</ele>
        <time>2016-06-10T11:25:49Z</time>
      </trkpt>
      <trkpt lat="45.61995" lon="4.67356">
        <ele>368.32</ele>
        <time>2016-06-10T11:26:05Z</time>
      </trkpt>
      <trkpt lat="45.62026" lon="4.67301">
        <ele>370.73</ele>
        <time>2016-06-10T11:26:22Z</time>
      </trkpt>
      <trkpt lat="45.6204" lon="4.67293">
        <ele>369.76</ele>
        <time>2016-06-10T11:26:28Z</time>
      </trkpt>
      <trkpt lat="45.62059" lon="4.6726">
        <ele>371.69</ele>
        <time>2016-06-10T11:26:39Z</time>
      </trkpt>
      <trkpt lat="45.62107" lon="4.672">
        <ele>372.17</ele>
        <time>2016-06-10T11:27:01Z</time>
      </trkpt>
      <trkpt lat="45.62127" lon="4.67174">
        <ele>370.73</ele>
        <time>2016-06-10T11:27:12Z</time>
      </trkpt>
      <trkpt lat="45.62128" lon="4.6717">
        <ele>371.21</ele>
        <time>2016-06-10T11:27:34Z</time>
      </trkpt>
      <trkpt lat="45.62128" lon="4.67169">
        <ele>371.21</ele>
        <time>2016-06-10T11:27:54Z</time>
      </trkpt>
    </trkseg>
  </trk>
</gpx>